Time;durP1;ratioP1;P1;durP2;ratioP2;P2;SDS_P1;SDS_P2;PMS_P1;PMS_P2;Temp;Humidity;BMP_temperature;BMP_pressure;BME280_temperature;BME280_humidity;BME280_pressure;Samples;Min_cycle;Max_cycle;Signal;HPM_P1;HPM_P2
2022/03/25 00:01:02;;;;;;;33.03;29.73;;;;;;;;;;5085242;28;20345;-51
2022/03/25 00:03:27;;;;;;;115.63;85.43;;;;;;;;;;5085050;28;20038;-49
2022/03/25 00:05:53;;;;;;;75.20;61.63;;;;;;;;;;5084327;28;20067;-50
2022/03/25 00:08:18;;;;;;;17.43;14.40;;;;;;;;;;5084247;28;20157;-50
2022/03/25 00:10:43;;;;;;;148.05;92.65;;;;;;;;;;5066236;28;20349;-50
2022/03/25 00:13:09;;;;;;;387.25;207.63;;;;;;;;;;5084132;28;20028;-50
2022/03/25 00:15:35;;;;;;;179.48;108.25;;;;;;;;;;5084235;28;20418;-51
2022/03/25 00:18:00;;;;;;;67.40;55.85;;;;;;;;;;5084386;28;20028;-50
2022/03/25 00:20:25;;;;;;;109.03;80.37;;;;;;;;;;5084123;28;20533;-50
2022/03/25 00:22:51;;;;;;;153.30;100.20;;;;;;;;;;5084113;28;20330;-50
2022/03/25 00:25:16;;;;;;;87.10;71.80;;;;;;;;;;5084020;28;20017;-50
2022/03/25 00:27:42;;;;;;;259.70;151.43;;;;;;;;;;5083839;28;20103;-51
2022/03/25 00:30:07;;;;;;;666.35;500.17;;;;;;;;;;5084166;28;20031;-51
2022/03/25 00:32:32;;;;;;;423.40;238.63;;;;;;;;;;5084493;28;20111;-51
2022/03/25 00:34:59;;;;;;;478.33;280.23;;;;;;;;;;5083759;28;20024;-52
2022/03/25 00:37:25;;;;;;;295.30;186.23;;;;;;;;;;5084073;28;20686;-52
2022/03/25 00:39:50;;;;;;;762.50;560.42;;;;;;;;;;5084000;28;20031;-51
2022/03/25 00:42:16;;;;;;;256.48;190.55;;;;;;;;;;5083521;28;20123;-50
2022/03/25 00:44:41;;;;;;;14.90;12.25;;;;;;;;;;5083931;28;20035;-50
2022/03/25 00:47:07;;;;;;;45.53;40.58;;;;;;;;;;5083611;28;20541;-56
2022/03/25 00:49:32;;;;;;;94.30;67.20;;;;;;;;;;5084216;28;20816;-52
2022/03/25 00:51:58;;;;;;;797.97;618.75;;;;;;;;;;5083828;28;20753;-51
2022/03/25 00:54:23;;;;;;;481.67;336.58;;;;;;;;;;5083374;28;20059;-51
2022/03/25 00:56:48;;;;;;;1043.13;871.65;;;;;;;;;;5083433;28;20101;-52
2022/03/25 00:59:14;;;;;;;918.47;750.80;;;;;;;;;;5082827;28;20419;-51
2022/03/25 01:01:40;;;;;;;459.75;288.67;;;;;;;;;;5083193;28;20349;-51
2022/03/25 01:04:05;;;;;;;470.65;278.80;;;;;;;;;;5083011;28;20107;-51
2022/03/25 01:06:31;;;;;;;368.48;214.02;;;;;;;;;;5083296;28;20031;-51
2022/03/25 01:08:57;;;;;;;775.97;610.92;;;;;;;;;;5082253;28;20048;-51
2022/03/25 01:11:22;;;;;;;802.63;628.75;;;;;;;;;;5083065;28;20017;-51
2022/03/25 01:13:47;;;;;;;457.75;256.10;;;;;;;;;;5082806;28;20024;-51
2022/03/25 01:16:13;;;;;;;83.32;66.28;;;;;;;;;;5064368;28;20031;-52
2022/03/25 01:18:38;;;;;;;106.90;79.78;;;;;;;;;;5082611;28;20028;-51
2022/03/25 01:21:04;;;;;;;142.15;93.72;;;;;;;;;;5082265;28;20026;-51
2022/03/25 01:23:29;;;;;;;109.05;80.22;;;;;;;;;;5082266;28;20578;-51
2022/03/25 01:25:54;;;;;;;42.93;38.17;;;;;;;;;;5082965;28;20799;-51
2022/03/25 01:28:19;;;;;;;35.40;31.70;;;;;;;;;;5082658;28;20286;-51
2022/03/25 01:30:45;;;;;;;77.30;63.90;;;;;;;;;;5070979;28;20262;-51
2022/03/25 01:33:10;;;;;;;74.68;62.53;;;;;;;;;;5089749;28;20381;-52
2022/03/25 01:35:35;;;;;;;56.92;49.42;;;;;;;;;;5090004;28;20016;-52
2022/03/25 01:38:01;;;;;;;33.80;30.30;;;;;;;;;;5088302;28;20042;-51
2022/03/25 01:40:26;;;;;;;40.08;35.80;;;;;;;;;;5085833;28;20056;-51
2022/03/25 01:42:51;;;;;;;35.45;31.83;;;;;;;;;;5085867;28;20027;-51
2022/03/25 01:45:26;;;;;;;391.57;234.60;;;;;;;;;;5085295;28;20023;-51
2022/03/25 01:47:52;;;;;;;291.17;170.50;;;;;;;;;;5081513;28;20395;-51
2022/03/25 01:50:19;;;;;;;475.33;279.93;;;;;;;;;;5081858;28;20028;-51
2022/03/25 01:52:45;;;;;;;732.80;600.00;;;;;;;;;;5081943;28;20342;-52
2022/03/25 01:55:14;;;;;;;773.83;641.58;;;;;;;;;;5081596;28;20215;-51
2022/03/25 01:57:39;;;;;;;586.28;375.45;;;;;;;;;;5082090;28;20020;-51
2022/03/25 02:00:06;;;;;;;469.43;275.63;;;;;;;;;;5071393;28;20021;-51
2022/03/25 02:02:31;;;;;;;141.63;93.30;;;;;;;;;;5074322;28;20331;-51
2022/03/25 02:04:56;;;;;;;511.40;323.02;;;;;;;;;;5062550;28;20017;-51
2022/03/25 02:07:22;;;;;;;442.43;271.87;;;;;;;;;;5081461;28;20040;-51
2022/03/25 02:09:47;;;;;;;533.60;374.00;;;;;;;;;;5081372;28;20285;-51
2022/03/25 02:12:13;;;;;;;538.10;378.07;;;;;;;;;;5081311;28;20413;-51
2022/03/25 02:14:38;;;;;;;521.88;354.13;;;;;;;;;;5080949;28;20719;-51
2022/03/25 02:17:04;;;;;;;580.73;394.80;;;;;;;;;;5081005;28;20434;-52
2022/03/25 02:19:30;;;;;;;541.13;365.42;;;;;;;;;;5076698;28;20275;-49
2022/03/25 02:21:55;;;;;;;615.28;469.02;;;;;;;;;;5061688;28;20208;-48
2022/03/25 02:24:21;;;;;;;796.83;667.53;;;;;;;;;;5061834;28;20025;-51
2022/03/25 02:26:46;;;;;;;829.53;691.83;;;;;;;;;;5044059;28;20343;-49
2022/03/25 02:29:13;;;;;;;871.17;735.92;;;;;;;;;;5062491;28;20555;-49
2022/03/25 02:31:38;;;;;;;849.83;718.60;;;;;;;;;;5085735;28;20024;-49
2022/03/25 02:34:05;;;;;;;505.15;312.17;;;;;;;;;;5085700;28;20169;-49
2022/03/25 02:36:40;;;;;;;1386.28;999.90;;;;;;;;;;5085733;28;20024;-51
2022/03/25 02:39:05;;;;;;;963.35;824.13;;;;;;;;;;5084297;28;20102;-53
2022/03/25 02:41:30;;;;;;;1064.97;896.70;;;;;;;;;;5065718;28;20649;-51
2022/03/25 02:43:57;;;;;;;926.27;824.20;;;;;;;;;;5065806;28;20020;-51
2022/03/25 02:46:22;;;;;;;517.42;334.83;;;;;;;;;;5065314;28;20273;-51
2022/03/25 02:48:47;;;;;;;768.93;632.87;;;;;;;;;;5080931;28;20484;-51
2022/03/25 02:51:12;;;;;;;690.50;529.93;;;;;;;;;;5066402;28;20646;-51
2022/03/25 02:53:37;;;;;;;399.33;215.43;;;;;;;;;;5065585;28;20284;-51
2022/03/25 02:56:03;;;;;;;429.27;239.53;;;;;;;;;;5065542;28;20486;-51
2022/03/25 02:58:28;;;;;;;933.47;830.08;;;;;;;;;;5077930;28;20644;-51
2022/03/25 03:00:53;;;;;;;602.05;420.75;;;;;;;;;;5085718;28;20028;-51
2022/03/25 03:03:19;;;;;;;176.07;108.73;;;;;;;;;;5085586;28;20032;-51
2022/03/25 03:05:44;;;;;;;225.90;135.50;;;;;;;;;;5085358;28;20270;-51
2022/03/25 03:08:09;;;;;;;164.85;104.63;;;;;;;;;;5085081;28;20139;-51
2022/03/25 03:10:35;;;;;;;141.33;95.13;;;;;;;;;;5085609;28;20052;-51
2022/03/25 03:13:00;;;;;;;162.15;102.78;;;;;;;;;;5085274;28;20277;-51
2022/03/25 03:15:25;;;;;;;219.63;127.85;;;;;;;;;;5085093;28;20020;-51
2022/03/25 03:17:50;;;;;;;369.52;215.25;;;;;;;;;;5085353;28;20028;-51
2022/03/25 03:20:16;;;;;;;363.93;203.60;;;;;;;;;;5085433;28;20513;-51
2022/03/25 03:22:41;;;;;;;149.50;92.55;;;;;;;;;;5085444;28;20346;-51
2022/03/25 03:25:07;;;;;;;41.30;34.92;;;;;;;;;;5084729;28;20491;-51
2022/03/25 03:27:32;;;;;;;49.50;44.17;;;;;;;;;;5084964;28;20097;-51
2022/03/25 03:29:58;;;;;;;104.85;73.10;;;;;;;;;;5084974;28;20518;-51
2022/03/25 03:32:25;;;;;;;442.42;260.20;;;;;;;;;;5085207;28;20016;-52
2022/03/25 03:34:50;;;;;;;618.35;435.95;;;;;;;;;;5084928;28;20031;-51
2022/03/25 03:37:16;;;;;;;325.13;181.52;;;;;;;;;;5084738;28;20019;-52
2022/03/25 03:39:41;;;;;;;368.75;206.10;;;;;;;;;;5078421;28;20088;-51
2022/03/25 03:42:07;;;;;;;18.50;13.95;;;;;;;;;;5064349;28;20107;-51
2022/03/25 03:44:35;;;;;;;32.22;28.67;;;;;;;;;;5064520;28;20127;-51
2022/03/25 03:47:00;;;;;;;33.97;29.45;;;;;;;;;;5080171;28;20020;-50
2022/03/25 03:49:26;;;;;;;18.50;13.10;;;;;;;;;;5082301;28;20631;-50
2022/03/25 03:51:51;;;;;;;16.33;10.90;;;;;;;;;;5084616;28;20419;-51
2022/03/25 03:54:16;;;;;;;41.70;37.23;;;;;;;;;;5084301;28;20274;-50
2022/03/25 03:56:42;;;;;;;47.60;41.80;;;;;;;;;;5084217;28;20379;-50
2022/03/25 03:59:07;;;;;;;28.58;25.48;;;;;;;;;;5082878;28;20021;-50
2022/03/25 04:01:33;;;;;;;34.17;30.47;;;;;;;;;;5064066;28;20021;-49
2022/03/25 04:03:58;;;;;;;49.70;44.35;;;;;;;;;;5064176;28;20266;-50
2022/03/25 04:06:23;;;;;;;108.57;79.03;;;;;;;;;;5064223;28;20522;-50
2022/03/25 04:08:49;;;;;;;80.87;65.67;;;;;;;;;;5079023;28;20526;-50
2022/03/25 04:11:14;;;;;;;229.07;132.18;;;;;;;;;;5046947;28;20569;-50
2022/03/25 04:13:39;;;;;;;647.70;500.35;;;;;;;;;;5069821;28;20023;-50
2022/03/25 04:16:04;;;;;;;927.23;780.57;;;;;;;;;;5083920;28;20016;-50
2022/03/25 04:18:30;;;;;;;855.37;744.53;;;;;;;;;;5075233;28;20278;-50
2022/03/25 04:20:55;;;;;;;497.65;340.52;;;;;;;;;;5068098;28;20263;-50
2022/03/25 04:23:20;;;;;;;555.57;375.67;;;;;;;;;;5063217;28;20116;-50
2022/03/25 04:25:45;;;;;;;121.93;87.23;;;;;;;;;;5070363;28;20258;-51
2022/03/25 04:28:11;;;;;;;58.00;51.30;;;;;;;;;;5083524;28;20302;-50
2022/03/25 04:30:37;;;;;;;29.42;26.38;;;;;;;;;;5082794;28;20267;-50
2022/03/25 04:33:02;;;;;;;26.48;22.50;;;;;;;;;;5072420;28;20032;-51
2022/03/25 04:35:28;;;;;;;43.10;36.50;;;;;;;;;;5076085;28;20020;-51
2022/03/25 04:37:54;;;;;;;66.35;57.53;;;;;;;;;;5066126;28;20539;-51
2022/03/25 04:40:19;;;;;;;45.97;41.00;;;;;;;;;;5074043;28;20034;-50
2022/03/25 04:42:45;;;;;;;47.15;42.03;;;;;;;;;;5068376;28;20819;-51
2022/03/25 04:45:10;;;;;;;65.85;56.28;;;;;;;;;;5077914;28;20067;-51
2022/03/25 04:47:36;;;;;;;88.43;72.00;;;;;;;;;;5066512;28;20028;-50
2022/03/25 04:50:01;;;;;;;179.80;110.97;;;;;;;;;;5048392;28;20035;-50
2022/03/25 04:52:26;;;;;;;482.87;283.47;;;;;;;;;;5063632;28;20013;-50
2022/03/25 04:54:51;;;;;;;975.92;838.42;;;;;;;;;;5061409;28;20362;-50
2022/03/25 04:57:17;;;;;;;123.37;76.27;;;;;;;;;;5063441;28;20028;-50
2022/03/25 04:59:42;;;;;;;678.00;521.42;;;;;;;;;;5063313;28;20016;-50
2022/03/25 05:02:09;;;;;;;792.80;659.43;;;;;;;;;;5065620;28;20032;-50
2022/03/25 05:04:34;;;;;;;942.35;810.72;;;;;;;;;;5075349;28;20274;-51
2022/03/25 05:07:00;;;;;;;842.83;741.03;;;;;;;;;;5079037;28;20039;-49
2022/03/25 05:09:25;;;;;;;300.48;162.35;;;;;;;;;;5073796;28;20302;-50
2022/03/25 05:11:50;;;;;;;379.05;205.90;;;;;;;;;;5066202;28;20020;-50
2022/03/25 05:14:16;;;;;;;371.40;211.67;;;;;;;;;;5065783;28;20036;-52
2022/03/25 05:16:41;;;;;;;1386.35;999.90;;;;;;;;;;5066212;28;20077;-50
2022/03/25 05:19:06;;;;;;;1231.20;947.73;;;;;;;;;;5065196;28;20115;-49
2022/03/25 05:21:32;;;;;;;584.83;384.07;;;;;;;;;;5079780;28;20350;-50
2022/03/25 05:23:57;;;;;;;563.47;382.33;;;;;;;;;;5062335;28;20287;-50
2022/03/25 05:26:22;;;;;;;959.80;755.22;;;;;;;;;;5061934;28;20039;-51
2022/03/25 05:28:47;;;;;;;197.38;126.53;;;;;;;;;;5077018;28;20046;-51
2022/03/25 05:31:13;;;;;;;875.67;678.17;;;;;;;;;;5065698;28;20460;-50
2022/03/25 05:33:38;;;;;;;1513.80;999.90;;;;;;;;;;5075494;28;20585;-50
2022/03/25 05:36:04;;;;;;;1417.40;999.90;;;;;;;;;;5078119;28;20023;-54
2022/03/25 05:38:30;;;;;;;1125.65;807.40;;;;;;;;;;5065520;28;20542;-49
2022/03/25 05:40:55;;;;;;;574.08;379.10;;;;;;;;;;5063389;28;20093;-51
2022/03/25 05:43:20;;;;;;;655.30;465.10;;;;;;;;;;5064314;28;20035;-51
2022/03/25 05:45:46;;;;;;;555.87;367.80;;;;;;;;;;5065765;28;20028;-51
2022/03/25 05:48:11;;;;;;;601.57;391.53;;;;;;;;;;5071047;28;20292;-51
2022/03/25 05:50:36;;;;;;;103.97;72.70;;;;;;;;;;5066897;28;20297;-51
2022/03/25 05:53:01;;;;;;;113.97;75.72;;;;;;;;;;5064658;28;20031;-50
2022/03/25 05:55:27;;;;;;;86.97;60.13;;;;;;;;;;5062458;28;20462;-51
2022/03/25 05:57:52;;;;;;;110.82;73.78;;;;;;;;;;5062170;28;20503;-50
2022/03/25 06:00:17;;;;;;;55.57;45.63;;;;;;;;;;5064562;28;20067;-50
2022/03/25 06:02:43;;;;;;;118.73;82.80;;;;;;;;;;5073294;28;20286;-50
2022/03/25 06:05:08;;;;;;;93.47;67.80;;;;;;;;;;5081326;28;20844;-51
2022/03/25 06:07:36;;;;;;;65.07;55.55;;;;;;;;;;5081650;28;20526;-50
2022/03/25 06:10:02;;;;;;;142.80;92.95;;;;;;;;;;5081660;28;20027;-51
2022/03/25 06:12:28;;;;;;;320.50;181.55;;;;;;;;;;5081590;28;20020;-50
2022/03/25 06:14:53;;;;;;;181.30;108.50;;;;;;;;;;5081767;28;20084;-50
2022/03/25 06:17:19;;;;;;;241.33;135.17;;;;;;;;;;5081598;28;20800;-50
2022/03/25 06:19:44;;;;;;;265.63;142.00;;;;;;;;;;5081545;28;20498;-51
2022/03/25 06:22:10;;;;;;;301.27;158.32;;;;;;;;;;5081311;28;20106;-51
2022/03/25 06:24:35;;;;;;;212.23;120.80;;;;;;;;;;5081714;28;20077;-50
2022/03/25 06:27:00;;;;;;;199.50;116.13;;;;;;;;;;5078429;28;20066;-50
2022/03/25 06:29:25;;;;;;;257.98;137.55;;;;;;;;;;5077301;28;20066;-50
2022/03/25 06:31:51;;;;;;;69.88;57.25;;;;;;;;;;5072772;28;20032;-50
2022/03/25 06:34:20;;;;;;;154.10;99.45;;;;;;;;;;5073585;28;20025;-49
2022/03/25 06:36:46;;;;;;;420.65;229.35;;;;;;;;;;5058552;28;20039;-51
2022/03/25 06:39:11;;;;;;;351.30;185.77;;;;;;;;;;5063726;28;20032;-49
2022/03/25 06:41:36;;;;;;;401.93;214.57;;;;;;;;;;5066890;28;20034;-51
2022/03/25 06:44:02;;;;;;;393.07;211.63;;;;;;;;;;5082297;28;20305;-50
2022/03/25 06:46:28;;;;;;;116.18;81.78;;;;;;;;;;5081738;28;20304;-50
2022/03/25 06:48:53;;;;;;;317.53;167.57;;;;;;;;;;5081800;28;20043;-50
2022/03/25 06:51:18;;;;;;;412.38;222.18;;;;;;;;;;5075945;28;20016;-50
2022/03/25 06:53:44;;;;;;;398.63;213.00;;;;;;;;;;5070624;28;20530;-51
2022/03/25 06:56:09;;;;;;;120.40;84.28;;;;;;;;;;5071166;28;20031;-51
2022/03/25 06:58:36;;;;;;;330.23;169.48;;;;;;;;;;5066197;28;20032;-52
2022/03/25 07:01:01;;;;;;;326.10;167.20;;;;;;;;;;5066929;28;20119;-51
2022/03/25 07:03:27;;;;;;;419.55;227.75;;;;;;;;;;5045957;28;20099;-51
2022/03/25 07:05:52;;;;;;;385.17;210.55;;;;;;;;;;5061919;28;20429;-51
2022/03/25 07:08:20;;;;;;;425.75;233.07;;;;;;;;;;5074450;28;20080;-52
2022/03/25 07:10:45;;;;;;;401.88;217.82;;;;;;;;;;5063254;28;20012;-51
2022/03/25 07:13:11;;;;;;;409.67;221.68;;;;;;;;;;5069408;28;20050;-51
2022/03/25 07:15:36;;;;;;;352.73;189.05;;;;;;;;;;5082393;28;20024;-50
2022/03/25 07:18:01;;;;;;;344.63;182.90;;;;;;;;;;5083111;28;20499;-50
2022/03/25 07:20:27;;;;;;;292.27;155.20;;;;;;;;;;5061432;28;20027;-50
2022/03/25 07:22:53;;;;;;;427.42;236.75;;;;;;;;;;5085119;28;21053;-51
2022/03/25 07:25:18;;;;;;;30.27;27.23;;;;;;;;;;5084851;28;20024;-53
2022/03/25 07:27:44;;;;;;;56.03;42.90;;;;;;;;;;5084684;28;20055;-49
2022/03/25 07:30:10;;;;;;;31.88;26.73;;;;;;;;;;5072312;28;20032;-49
2022/03/25 07:32:35;;;;;;;29.88;25.55;;;;;;;;;;5065890;28;20028;-50
2022/03/25 07:35:00;;;;;;;28.90;25.03;;;;;;;;;;5065830;28;20086;-50
2022/03/25 07:37:26;;;;;;;25.45;21.88;;;;;;;;;;5049700;28;20028;-50
2022/03/25 07:39:51;;;;;;;117.20;81.63;;;;;;;;;;5066583;28;20123;-51
2022/03/25 07:42:16;;;;;;;453.00;254.33;;;;;;;;;;5066515;28;20067;-50
2022/03/25 07:44:41;;;;;;;534.90;317.13;;;;;;;;;;5056698;28;20028;-49
2022/03/25 07:47:07;;;;;;;555.08;329.75;;;;;;;;;;5070332;28;20031;-50
2022/03/25 07:49:34;;;;;;;450.40;246.40;;;;;;;;;;5071836;28;20043;-49
2022/03/25 07:51:59;;;;;;;380.50;197.68;;;;;;;;;;5070393;28;20506;-51
2022/03/25 07:54:25;;;;;;;186.93;113.70;;;;;;;;;;5067458;28;20066;-51
2022/03/25 07:56:50;;;;;;;116.03;79.03;;;;;;;;;;5067747;28;20070;-51
2022/03/25 07:59:15;;;;;;;125.77;84.30;;;;;;;;;;5069211;28;20278;-53
2022/03/25 08:01:41;;;;;;;32.63;29.17;;;;;;;;;;5066336;28;20025;-51
2022/03/25 08:04:06;;;;;;;37.67;33.63;;;;;;;;;;5066522;28;20407;-50
2022/03/25 08:06:31;;;;;;;21.97;15.27;;;;;;;;;;5070240;28;20526;-52
2022/03/25 08:08:59;;;;;;;32.88;27.75;;;;;;;;;;5065358;28;20507;-51
2022/03/25 08:11:25;;;;;;;131.25;89.57;;;;;;;;;;5065538;28;20044;-50
2022/03/25 08:13:50;;;;;;;148.55;94.82;;;;;;;;;;5068473;28;20048;-51
2022/03/25 08:16:16;;;;;;;90.17;69.20;;;;;;;;;;5072019;28;20173;-51
2022/03/25 08:18:42;;;;;;;187.63;108.88;;;;;;;;;;5061946;28;20012;-51
2022/03/25 08:21:08;;;;;;;215.25;122.35;;;;;;;;;;5064997;28;20031;-51
2022/03/25 08:29:01;;;;;;;47.72;39.72;;;;;;;;;;5063847;28;20036;-51
2022/03/25 08:31:28;;;;;;;53.85;41.67;;;;;;;;;;5061107;28;20024;-51
2022/03/25 08:33:53;;;;;;;163.05;98.68;;;;;;;;;;5065630;28;20047;-51
2022/03/25 08:36:18;;;;;;;206.23;115.17;;;;;;;;;;5067988;28;20427;-50
2022/03/25 08:38:44;;;;;;;180.13;112.67;;;;;;;;;;5065276;28;20443;-54
2022/03/25 08:41:09;;;;;;;15.68;13.73;;;;;;;;;;5065251;28;20418;-51
2022/03/25 08:43:34;;;;;;;167.67;100.47;;;;;;;;;;5083640;28;20757;-50
2022/03/25 08:45:59;;;;;;;68.85;48.50;;;;;;;;;;5069838;28;20404;-52
2022/03/25 08:48:25;;;;;;;54.53;47.07;;;;;;;;;;5074292;28;20036;-51
2022/03/25 08:50:51;;;;;;;107.63;69.53;;;;;;;;;;5083620;28;20643;-50
2022/03/25 08:53:17;;;;;;;151.80;96.43;;;;;;;;;;5083205;28;20028;-49
2022/03/25 08:55:42;;;;;;;174.05;108.82;;;;;;;;;;5083404;28;20012;-51
2022/03/25 08:58:07;;;;;;;243.13;136.93;;;;;;;;;;5077751;28;20063;-50
2022/03/25 09:00:32;;;;;;;343.97;181.73;;;;;;;;;;5062021;28;20058;-49
2022/03/25 09:02:58;;;;;;;251.00;136.67;;;;;;;;;;5062322;28;20259;-49
2022/03/25 09:05:23;;;;;;;357.00;186.83;;;;;;;;;;5062278;28;20282;-49
2022/03/25 09:07:48;;;;;;;383.55;209.45;;;;;;;;;;5061818;28;20048;-50
2022/03/25 09:10:17;;;;;;;601.47;407.17;;;;;;;;;;5062282;28;20024;-50
2022/03/25 09:12:42;;;;;;;815.78;598.92;;;;;;;;;;5045005;28;20066;-50
2022/03/25 09:15:07;;;;;;;1025.90;833.78;;;;;;;;;;5077683;28;20063;-51
2022/03/25 09:17:33;;;;;;;17.60;13.40;;;;;;;;;;5065297;28;20483;-50
2022/03/25 09:19:58;;;;;;;14.10;7.28;;;;;;;;;;5066097;28;20028;-50
2022/03/25 09:22:23;;;;;;;11.93;7.77;;;;;;;;;;5063151;28;20032;-50
2022/03/25 09:24:49;;;;;;;10.90;5.87;;;;;;;;;;5043598;28;20267;-50
2022/03/25 09:27:14;;;;;;;10.73;6.33;;;;;;;;;;5075150;28;20043;-50
2022/03/25 09:29:39;;;;;;;10.07;5.05;;;;;;;;;;5063781;28;20302;-50
2022/03/25 09:32:05;;;;;;;13.23;8.20;;;;;;;;;;5070008;28;20027;-50
2022/03/25 09:37:14;;;;;;;12.73;6.45;;;;;;;;;;5063232;28;20048;-50
2022/03/25 09:39:39;;;;;;;14.77;11.63;;;;;;;;;;5073383;28;20501;-50
2022/03/25 09:42:05;;;;;;;21.03;15.33;;;;;;;;;;5062283;28;20460;-50
2022/03/25 09:44:30;;;;;;;8.80;4.95;;;;;;;;;;5044172;28;20051;-49
2022/03/25 09:46:55;;;;;;;14.02;9.30;;;;;;;;;;5070237;28;20098;-52
2022/03/25 09:49:21;;;;;;;9.83;5.83;;;;;;;;;;5081517;28;20529;-50
2022/03/25 09:51:46;;;;;;;10.25;6.25;;;;;;;;;;5077975;28;20270;-51
2022/03/25 09:54:13;;;;;;;6.30;3.70;;;;;;;;;;5070941;28;20027;-50
2022/03/25 09:56:38;;;;;;;8.27;4.30;;;;;;;;;;5082318;28;20016;-52
2022/03/25 09:59:04;;;;;;;8.20;4.32;;;;;;;;;;5082490;28;20411;-50
2022/03/25 10:01:30;;;;;;;18.13;7.78;;;;;;;;;;5082227;28;20753;-50
2022/03/25 10:03:55;;;;;;;20.42;7.72;;;;;;;;;;5063851;28;20024;-50
2022/03/25 10:06:20;;;;;;;18.17;7.55;;;;;;;;;;5082220;28;20023;-50
2022/03/25 10:08:46;;;;;;;14.47;6.90;;;;;;;;;;5081638;28;20503;-49
2022/03/25 10:11:17;;;;;;;16.00;6.53;;;;;;;;;;5064048;28;20058;-50
2022/03/25 10:13:43;;;;;;;15.15;7.55;;;;;;;;;;5081961;28;20403;-50
2022/03/25 10:16:27;;;;;;;13.98;6.97;;;;;;;;;;5077210;28;20030;-51
2022/03/25 10:18:53;;;;;;;19.13;7.72;;;;;;;;;;5071110;28;20029;-51
2022/03/25 10:21:18;;;;;;;28.98;23.80;;;;;;;;;;5080197;28;20024;-51
2022/03/25 10:23:43;;;;;;;15.90;7.63;;;;;;;;;;5081808;28;20093;-51
2022/03/25 10:26:08;;;;;;;17.40;9.63;;;;;;;;;;5082207;28;20258;-51
2022/03/25 10:28:37;;;;;;;13.37;6.77;;;;;;;;;;5081855;28;20032;-50
2022/03/25 10:31:04;;;;;;;15.88;7.50;;;;;;;;;;5081840;28;20028;-50
2022/03/25 10:33:31;;;;;;;13.23;6.63;;;;;;;;;;5081742;28;20142;-51
2022/03/25 10:35:58;;;;;;;13.73;6.88;;;;;;;;;;5081494;28;20431;-50
2022/03/25 10:38:23;;;;;;;13.65;6.60;;;;;;;;;;5081782;28;20016;-50
2022/03/25 10:40:49;;;;;;;15.18;7.65;;;;;;;;;;5081408;28;20492;-49
2022/03/25 10:43:15;;;;;;;14.50;6.63;;;;;;;;;;5081705;28;20492;-51
2022/03/25 10:45:40;;;;;;;21.00;15.00;;;;;;;;;;5063672;28;20009;-50
2022/03/25 10:48:15;;;;;;;14.63;6.65;;;;;;;;;;5066751;28;20032;-51
2022/03/25 10:50:59;;;;;;;26.67;23.65;;;;;;;;;;5079439;28;20105;-51
2022/03/25 10:53:26;;;;;;;11.95;6.40;;;;;;;;;;5077347;28;20028;-52
2022/03/25 10:55:54;;;;;;;17.10;6.78;;;;;;;;;;5071525;28;20016;-50
2022/03/25 10:58:19;;;;;;;15.30;7.38;;;;;;;;;;5066513;28;20027;-50
2022/03/25 11:00:45;;;;;;;14.60;6.20;;;;;;;;;;5081280;28;20803;-50
2022/03/25 11:03:10;;;;;;;12.05;5.88;;;;;;;;;;5085360;28;20282;-50
2022/03/25 11:05:35;;;;;;;19.95;17.80;;;;;;;;;;5085199;28;20387;-51
2022/03/25 11:08:01;;;;;;;13.10;5.80;;;;;;;;;;5059695;28;20141;-51
2022/03/25 11:10:26;;;;;;;13.77;5.77;;;;;;;;;;5056926;28;20281;-52
2022/03/25 11:12:51;;;;;;;14.60;9.67;;;;;;;;;;5078223;28;20638;-51
2022/03/25 11:15:17;;;;;;;14.43;5.87;;;;;;;;;;5077077;28;20351;-50
2022/03/25 11:17:43;;;;;;;14.98;9.07;;;;;;;;;;5078534;28;20802;-50
2022/03/25 11:20:10;;;;;;;14.30;6.50;;;;;;;;;;5074273;28;20016;-51
2022/03/25 11:22:35;;;;;;;25.45;22.33;;;;;;;;;;5083597;28;20015;-51
2022/03/25 11:25:00;;;;;;;12.85;5.72;;;;;;;;;;5065083;28;20040;-51
2022/03/25 11:27:30;;;;;;;12.23;5.80;;;;;;;;;;5061481;28;20025;-51
2022/03/25 11:30:00;;;;;;;12.35;6.00;;;;;;;;;;5050112;28;20360;-50
2022/03/25 11:32:26;;;;;;;10.80;5.63;;;;;;;;;;5052812;28;20067;-52
2022/03/25 11:34:54;;;;;;;11.77;6.20;;;;;;;;;;5075173;28;20028;-52
2022/03/25 11:37:29;;;;;;;10.70;5.30;;;;;;;;;;5069174;28;20274;-51
2022/03/25 11:40:28;;;;;;;13.20;6.18;;;;;;;;;;5068066;28;20036;-50
2022/03/25 11:42:56;;;;;;;14.35;6.38;;;;;;;;;;5041717;28;20032;-51
2022/03/25 11:45:22;;;;;;;12.80;6.97;;;;;;;;;;5077444;28;20032;-51
2022/03/25 11:48:02;;;;;;;13.98;6.47;;;;;;;;;;5078832;28;20023;-50
2022/03/25 11:50:28;;;;;;;15.32;6.57;;;;;;;;;;5080099;28;20032;-51
2022/03/25 11:52:53;;;;;;;11.57;6.03;;;;;;;;;;5076839;28;20114;-50
2022/03/25 11:55:19;;;;;;;13.33;7.00;;;;;;;;;;5067277;28;20193;-50
2022/03/25 11:57:44;;;;;;;16.47;8.10;;;;;;;;;;5080460;28;20099;-50
2022/03/25 12:00:13;;;;;;;12.55;7.13;;;;;;;;;;5051915;28;20259;-51
2022/03/25 12:02:40;;;;;;;12.88;9.23;;;;;;;;;;5048230;28;20028;-51
2022/03/25 12:05:24;;;;;;;123.10;84.63;;;;;;;;;;5072075;28;20081;-51
2022/03/25 12:08:08;;;;;;;223.82;122.68;;;;;;;;;;5082014;28;20055;-50
2022/03/25 12:10:42;;;;;;;284.58;146.65;;;;;;;;;;5072914;28;20095;-50
2022/03/25 12:13:08;;;;;;;325.42;167.07;;;;;;;;;;5066272;28;20025;-50
2022/03/25 12:15:59;;;;;;;244.75;136.85;;;;;;;;;;5079787;28;20020;-50
2022/03/25 12:18:41;;;;;;;227.57;129.18;;;;;;;;;;5067365;28;20507;-51
2022/03/25 12:21:12;;;;;;;259.60;140.00;;;;;;;;;;5065862;28;20013;-51
2022/03/25 12:23:37;;;;;;;106.25;69.95;;;;;;;;;;5079714;28;20101;-50
2022/03/25 12:26:03;;;;;;;193.02;110.10;;;;;;;;;;5069535;28;20044;-51
2022/03/25 12:28:28;;;;;;;12.20;6.93;;;;;;;;;;5083082;28;20086;-53
2022/03/25 12:30:53;;;;;;;68.37;39.33;;;;;;;;;;5075990;28;20266;-50
2022/03/25 12:33:19;;;;;;;11.88;5.75;;;;;;;;;;5065538;28;20059;-51
2022/03/25 12:35:44;;;;;;;15.32;10.68;;;;;;;;;;5063436;28;20117;-51
2022/03/25 12:38:22;;;;;;;194.15;120.72;;;;;;;;;;5071189;28;20031;-53
2022/03/25 12:40:48;;;;;;;12.70;5.40;;;;;;;;;;5083368;28;20028;-51
2022/03/25 12:43:13;;;;;;;13.05;7.68;;;;;;;;;;5065567;28;20016;-52
2022/03/25 12:45:42;;;;;;;19.00;16.63;;;;;;;;;;5083467;28;20035;-51
2022/03/25 12:48:11;;;;;;;299.70;177.32;;;;;;;;;;5057293;28;20310;-50
2022/03/25 12:50:37;;;;;;;13.18;9.32;;;;;;;;;;5064787;28;20028;-53
2022/03/25 12:53:04;;;;;;;31.48;28.10;;;;;;;;;;5064827;28;20499;-50
2022/03/25 12:55:30;;;;;;;227.40;154.82;;;;;;;;;;5082111;28;20028;-51
2022/03/25 12:58:02;;;;;;;12.50;6.57;;;;;;;;;;5082864;28;20500;-53
2022/03/25 13:00:31;;;;;;;14.38;11.15;;;;;;;;;;5072587;28;20025;-50
2022/03/25 13:02:56;;;;;;;20.17;17.83;;;;;;;;;;5066192;28;20123;-51
2022/03/25 13:05:22;;;;;;;157.73;95.43;;;;;;;;;;5045957;28;20444;-51
2022/03/25 13:07:48;;;;;;;260.55;169.32;;;;;;;;;;5053233;28;20302;-52
2022/03/25 13:10:13;;;;;;;9.40;4.55;;;;;;;;;;5061814;28;20086;-51
2022/03/25 13:12:42;;;;;;;12.18;5.32;;;;;;;;;;5073153;28;20032;-50
2022/03/25 13:15:09;;;;;;;9.45;5.15;;;;;;;;;;5068605;28;20036;-51
2022/03/25 13:17:37;;;;;;;12.02;6.28;;;;;;;;;;5064123;28;20028;-53
2022/03/25 13:20:03;;;;;;;13.52;6.93;;;;;;;;;;5076529;28;20029;-50
2022/03/25 13:22:31;;;;;;;21.67;18.00;;;;;;;;;;5063715;28;20400;-50
2022/03/25 13:24:57;;;;;;;353.98;283.90;;;;;;;;;;5064483;28;20027;-51
2022/03/25 13:27:22;;;;;;;21.40;17.75;;;;;;;;;;5080244;28;20047;-51
2022/03/25 13:29:48;;;;;;;25.55;22.17;;;;;;;;;;5064019;28;20032;-50
2022/03/25 13:32:28;;;;;;;700.45;508.40;;;;;;;;;;5052589;28;20040;-50
2022/03/25 13:35:03;;;;;;;224.85;129.80;;;;;;;;;;5060299;28;21475;-51
2022/03/25 13:37:29;;;;;;;682.03;432.80;;;;;;;;;;5066623;28;20107;-51
2022/03/25 13:39:54;;;;;;;474.70;286.30;;;;;;;;;;5077702;28;20188;-51
2022/03/25 13:42:19;;;;;;;271.67;180.70;;;;;;;;;;5067503;28;20013;-50
2022/03/25 13:44:44;;;;;;;35.03;23.40;;;;;;;;;;5050802;28;20028;-51
2022/03/25 13:47:10;;;;;;;11.27;4.30;;;;;;;;;;5074091;28;20028;-53
2022/03/25 13:49:35;;;;;;;9.75;4.72;;;;;;;;;;5065661;28;20040;-51
2022/03/25 13:52:04;;;;;;;10.77;6.77;;;;;;;;;;5049614;28;20100;-51
2022/03/25 13:54:30;;;;;;;9.23;4.50;;;;;;;;;;5067751;28;20262;-51
2022/03/25 13:56:57;;;;;;;11.40;6.75;;;;;;;;;;5070432;28;20221;-50
2022/03/25 13:59:23;;;;;;;23.48;21.13;;;;;;;;;;5049040;28;20659;-52
2022/03/25 14:01:48;;;;;;;232.43;134.50;;;;;;;;;;5073147;28;20051;-51
2022/03/25 14:04:14;;;;;;;43.80;20.80;;;;;;;;;;5061497;28;20805;-52
2022/03/25 14:06:40;;;;;;;6.40;4.10;;;;;;;;;;5061472;28;20770;-52
2022/03/25 14:09:26;;;;;;;7.38;4.20;;;;;;;;;;5076165;28;20044;-52